Cumberland Furnace, Tennessee
Current Conditions -  °F | °C
As of 2:52 PM on Tuesday 21 Oct 2014 (Local Time) from KCKV Reporting Station
Clear Clear  
Wind Chill: 70°   Ceiling: Unl
Heat Index: 70°   Visibility: 10mi
Dew Point: 45°   Wind: 13mph
Humidity: 41%   Direction: 320°NW
Pressure: 30.04"   Gusts: NA
Location:  36.27°N, 87.36°W
Report Text: KCKV 211952Z AUTO 32011KT 10SM CLR 21/07 A3004 RMK AO2 SLP170 T02110072
Loading
Personal Weather Stations






























Interactive Weather Map
Tropical Storm Tracking
New forecast layout! Learn more

10-Day Weather Forecast

Advertisements
Track Severe Weather on mobile